map of SBES home
SBES - Airport
Location
City:  São Pedro da Aldeia, Rio de Janeiro, Brazil
ICAO:SBES

Details
Type:Airport (Aerodrome, Airfield)
Use:Military
Latitude:22°48'46"S (-22.812871)
Longitude:42°05'33"W (-42.092632)
Datum:WGS 1984
Elevation:61 ft (19 m)
Variation:23.16°W (WMM2015v2 magnetic declination)
-0.06° annual change
Runways:1
Longest:7875 × 92 ft (2400 × 28 m), paved

Time
Time Zone:UTC-3 (DST-2)
Local Time:

Weather
METAR:SBES 041400Z 22011KT 200V260 9999 FEW025 FEW030TCU BKN100 30/24 Q1013

Related Locations
Nearby:
Farthest:IWO: 12187 mi / 19612 km
Iwo Jima [Iwo Jima AB], Iwo Jima Island, 13, JP

Find:

   beyond  
but within

Other Information
Maps:
NOTAMs:
Links:
Sources:

  
  • flag of Brazil
  • flag of Rio de Janeiro
  

Sectional Chart

Flight Planning
at skyvector.com

Satellite Image

Google Maps Satellite view

 

Copyright © 2004-2019 Karl L. Swartz. All rights reserved.
The Great Circle Mapper name and logo are trademarks of the Great Circle Mapper.
All other trademarks mentioned herein belong to their respective owners.
Please see credits for attibutions and further copyright information.

  Follow gcmap on Facebook Follow gcmap on Twitter GCmap on LinkedIn

hCard Microformat

Geo Microformat